Adrian, Minnesota
Current Conditions -  °F | °C
As of 3:34 PM on Sunday 21 Dec 2014 (Local Time) from KLYV Reporting Station
Haze Haze  
Wind Chill: 29°   Ceiling: 400
Heat Index: 37°   Visibility: 1.2mi
Dew Point: 37°   Wind: 14mph
Humidity: 100%   Direction: 170°S
Pressure: 29.62"   Gusts: NA
Location:  43.63°N, 95.93°W
Report Text: KLYV 212134Z AUTO 17012KT 1 1/4SM BR OVC004 03/03 A2962 RMK AO2
Loading
Personal Weather Stations






























Interactive Weather Map New forecast layout! Learn more

10-Day Weather Forecast

Advertisements
Track Severe Weather on mobile